Time;durP1;ratioP1;P1;durP2;ratioP2;P2;SDS_P1;SDS_P2;PMS_P1;PMS_P2;Temp;Humidity;BMP_temperature;BMP_pressure;BME280_temperature;BME280_humidity;BME280_pressure;Samples;Min_cycle;Max_cycle;Signal;HPM_P1;HPM_P2
2021/08/26 00:05:43;;;;;;;0.45;0.45;;;15.30;99.90;;;;;;4400889;32;20135;-68
2021/08/26 00:06:48;;;;;;;0.30;0.30;;;15.30;99.90;;;;;;4378838;32;20086;-68
2021/08/26 00:09:15;;;;;;;1.10;0.40;;;15.20;99.90;;;;;;4400715;32;20054;-67
2021/08/26 00:11:44;;;;;;;0.20;0.20;;;15.20;99.90;;;;;;4400257;32;20507;-68
2021/08/26 00:14:10;;;;;;;1.27;1.17;;;15.20;99.90;;;;;;4399904;32;20066;-69
2021/08/26 00:16:35;;;;;;;0.30;0.30;;;15.20;99.90;;;;;;4400653;32;20074;-69
2021/08/26 00:19:01;;;;;;;7.57;0.60;;;15.10;99.90;;;;;;4400336;32;20121;-68
2021/08/26 00:21:28;;;;;;;0.30;0.30;;;15.10;99.90;;;;;;4386713;32;20491;-68
2021/08/26 00:23:53;;;;;;;0.30;0.30;;;15.20;99.90;;;;;;4400358;32;20058;-68
2021/08/26 00:26:19;;;;;;;0.30;0.30;;;15.20;99.90;;;;;;4401042;32;20082;-67
2021/08/26 00:28:44;;;;;;;0.55;0.55;;;15.20;99.90;;;;;;4401196;32;20057;-68
2021/08/26 00:31:10;;;;;;;0.47;0.47;;;15.20;99.90;;;;;;4400613;32;20070;-67
2021/08/26 00:33:35;;;;;;;0.30;0.30;;;15.20;99.90;;;;;;4400825;32;20067;-67
2021/08/26 00:36:01;;;;;;;1.85;0.50;;;15.20;99.90;;;;;;4401521;32;20170;-67
2021/08/26 00:38:26;;;;;;;0.62;0.62;;;15.20;99.90;;;;;;4400309;32;20124;-68
2021/08/26 00:40:53;;;;;;;0.40;0.40;;;15.30;99.90;;;;;;4400624;32;20062;-68
2021/08/26 00:43:19;;;;;;;0.30;0.30;;;15.20;99.90;;;;;;4400237;32;20071;-69
2021/08/26 00:45:46;;;;;;;0.40;0.40;;;15.20;99.90;;;;;;4399455;32;20058;-68
2021/08/26 00:48:11;;;;;;;0.40;0.40;;;15.20;99.90;;;;;;4401338;32;20568;-68
2021/08/26 00:50:37;;;;;;;7.03;0.55;;;15.30;99.90;;;;;;4400310;32;20062;-68
2021/08/26 00:53:03;;;;;;;0.30;0.30;;;15.30;99.90;;;;;;4399908;32;20062;-67
2021/08/26 00:55:29;;;;;;;3.33;0.65;;;15.30;99.90;;;;;;4399768;32;20176;-68
2021/08/26 00:57:55;;;;;;;0.20;0.20;;;15.30;99.90;;;;;;4399653;32;20074;-68
2021/08/26 01:00:20;;;;;;;0.30;0.30;;;15.30;99.90;;;;;;4399862;32;20527;-67
2021/08/26 01:03:01;;;;;;;1.85;0.90;;;15.30;99.90;;;;;;4400262;32;20132;-68
2021/08/26 01:05:37;;;;;;;0.20;0.20;;;15.30;99.90;;;;;;4399884;32;20121;-68
2021/08/26 01:08:11;;;;;;;0.30;0.30;;;15.30;99.90;;;;;;4401090;32;20057;-68
2021/08/26 01:10:37;;;;;;;0.50;0.50;;;15.20;99.90;;;;;;4399918;32;20113;-67
2021/08/26 01:13:04;;;;;;;0.50;0.50;;;15.20;99.90;;;;;;4399692;32;20519;-68
2021/08/26 01:15:29;;;;;;;0.30;0.30;;;15.10;99.90;;;;;;4398773;32;20073;-68
2021/08/26 01:17:56;;;;;;;0.20;0.20;;;15.10;99.90;;;;;;4399889;32;20074;-68
2021/08/26 01:20:21;;;;;;;0.50;0.50;;;15.10;99.90;;;;;;4399620;32;20074;-67
2021/08/26 01:22:47;;;;;;;0.40;0.40;;;15.10;99.90;;;;;;4399201;32;20079;-67
2021/08/26 01:25:18;;;;;;;0.30;0.30;;;15.10;99.90;;;;;;4400132;32;20538;-67
2021/08/26 01:27:48;;;;;;;;;;;15.10;99.90;;;;;;4399922;32;20471;-68
2021/08/26 01:30:18;;;;;;;2.03;0.50;;;15.10;99.90;;;;;;4399483;32;19950;-68
2021/08/26 01:32:44;;;;;;;0.40;0.40;;;15.00;99.90;;;;;;4399152;32;20061;-68
2021/08/26 01:35:12;;;;;;;0.40;0.40;;;15.10;99.90;;;;;;4399369;32;20092;-68
2021/08/26 01:37:39;;;;;;;0.40;0.40;;;15.10;99.90;;;;;;4400027;32;20065;-68
2021/08/26 01:40:05;;;;;;;0.43;0.43;;;15.10;99.90;;;;;;4399345;32;20494;-67
2021/08/26 01:42:31;;;;;;;0.30;0.30;;;15.10;99.90;;;;;;4399423;32;20511;-68
2021/08/26 01:44:57;;;;;;;5.15;0.32;;;15.10;99.90;;;;;;4399600;32;20128;-67
2021/08/26 01:47:23;;;;;;;2.00;0.70;;;15.10;99.90;;;;;;4399394;32;20126;-68
2021/08/26 01:49:51;;;;;;;3.95;0.55;;;15.10;99.90;;;;;;4399906;32;20506;-67
2021/08/26 01:52:20;;;;;;;0.30;0.30;;;15.10;99.90;;;;;;4399573;32;20511;-68
2021/08/26 01:54:50;;;;;;;0.30;0.30;;;15.00;99.90;;;;;;4399413;32;20054;-68
2021/08/26 01:57:18;;;;;;;0.52;0.40;;;15.10;99.90;;;;;;4385435;32;20112;-68
2021/08/26 01:59:44;;;;;;;5.68;0.50;;;15.00;99.90;;;;;;4400501;32;20542;-68
2021/08/26 02:02:10;;;;;;;0.50;0.50;;;15.10;99.90;;;;;;4400082;32;20081;-67
2021/08/26 02:04:35;;;;;;;0.52;0.52;;;15.10;99.90;;;;;;4399279;32;20080;-68
2021/08/26 02:07:01;;;;;;;0.52;0.52;;;15.00;99.90;;;;;;4398757;32;20155;-68
2021/08/26 02:09:26;;;;;;;0.68;0.68;;;15.00;99.90;;;;;;4398862;32;20388;-68
2021/08/26 02:11:52;;;;;;;0.90;0.90;;;15.00;99.90;;;;;;4398673;32;20065;-67
2021/08/26 02:14:17;;;;;;;0.40;0.40;;;15.10;99.90;;;;;;4399437;32;20058;-68
2021/08/26 02:16:42;;;;;;;1.62;0.93;;;15.00;99.90;;;;;;4399278;32;20082;-68
2021/08/26 02:19:08;;;;;;;2.37;0.60;;;15.10;99.90;;;;;;4399581;32;20070;-69
2021/08/26 02:21:33;;;;;;;0.57;0.57;;;15.00;99.90;;;;;;4399123;32;20463;-67
2021/08/26 02:23:59;;;;;;;0.70;0.40;;;15.00;99.90;;;;;;4399766;32;20066;-69
2021/08/26 02:26:24;;;;;;;0.20;0.20;;;15.00;99.90;;;;;;4400169;32;20117;-67
2021/08/26 02:28:50;;;;;;;0.93;0.93;;;14.90;99.90;;;;;;4399601;32;20061;-68
2021/08/26 02:31:16;;;;;;;2.65;1.85;;;14.90;99.90;;;;;;4399556;32;20075;-68
2021/08/26 02:33:41;;;;;;;1.40;1.30;;;14.90;99.90;;;;;;4399082;32;20079;-68
2021/08/26 02:36:07;;;;;;;0.30;0.30;;;15.00;99.90;;;;;;4398990;32;20117;-68
2021/08/26 02:38:32;;;;;;;1.12;0.98;;;14.90;99.90;;;;;;4399475;32;20065;-68
2021/08/26 02:40:58;;;;;;;5.47;1.48;;;14.90;99.90;;;;;;4398325;32;20081;-67
2021/08/26 02:43:23;;;;;;;0.43;0.43;;;14.90;99.90;;;;;;4400038;32;20062;-68
2021/08/26 02:45:49;;;;;;;0.40;0.40;;;14.90;99.90;;;;;;4399201;32;20547;-68
2021/08/26 02:48:14;;;;;;;0.52;0.52;;;14.90;99.90;;;;;;4399708;32;20078;-68
2021/08/26 02:50:40;;;;;;;0.40;0.40;;;14.90;99.90;;;;;;4399854;32;20066;-69
2021/08/26 02:53:05;;;;;;;0.40;0.40;;;14.80;99.90;;;;;;4399015;32;20075;-67
2021/08/26 02:55:31;;;;;;;6.47;0.50;;;14.80;99.90;;;;;;4399742;32;20113;-68
2021/08/26 02:57:56;;;;;;;0.40;0.40;;;14.90;99.90;;;;;;4385757;32;20069;-68
2021/08/26 03:00:22;;;;;;;0.40;0.40;;;14.90;99.90;;;;;;4398070;32;20113;-68
2021/08/26 03:02:47;;;;;;;0.70;0.70;;;14.80;99.90;;;;;;4398727;32;20094;-68
2021/08/26 03:05:13;;;;;;;1.00;0.88;;;14.90;99.90;;;;;;4399466;32;20066;-68
2021/08/26 03:07:38;;;;;;;0.93;0.93;;;14.80;99.90;;;;;;4397933;32;20117;-67
2021/08/26 03:10:04;;;;;;;0.30;0.30;;;14.80;99.90;;;;;;4399754;32;20070;-68
2021/08/26 03:12:30;;;;;;;0.45;0.45;;;14.80;99.90;;;;;;4398687;32;20530;-68
2021/08/26 03:14:55;;;;;;;0.57;0.57;;;14.80;99.90;;;;;;4398924;32;20058;-68
2021/08/26 03:17:21;;;;;;;0.40;0.40;;;14.80;99.90;;;;;;4398276;32;20392;-68
2021/08/26 03:19:46;;;;;;;0.80;0.80;;;14.70;99.90;;;;;;4400544;32;20082;-68
2021/08/26 03:22:12;;;;;;;0.30;0.30;;;14.70;99.90;;;;;;4402226;32;20062;-67
2021/08/26 03:24:37;;;;;;;0.40;0.37;;;14.80;99.90;;;;;;4400624;32;20129;-68
2021/08/26 03:27:03;;;;;;;1.55;0.85;;;14.80;99.90;;;;;;4402286;32;20078;-68
2021/08/26 03:29:28;;;;;;;0.30;0.30;;;14.70;99.90;;;;;;4401399;32;20058;-68
2021/08/26 03:31:54;;;;;;;5.45;1.15;;;14.80;99.90;;;;;;4400540;32;20069;-69
2021/08/26 03:34:19;;;;;;;4.50;1.15;;;14.70;99.90;;;;;;4387429;32;20075;-68
2021/08/26 03:36:45;;;;;;;1.50;0.47;;;14.80;99.90;;;;;;4402134;32;20399;-68
2021/08/26 03:39:10;;;;;;;0.55;0.50;;;14.80;99.90;;;;;;4401315;32;20070;-67
2021/08/26 03:41:36;;;;;;;0.30;0.30;;;14.80;99.90;;;;;;4401710;32;20503;-68
2021/08/26 03:44:01;;;;;;;0.55;0.55;;;14.70;99.90;;;;;;4401172;32;20380;-68
2021/08/26 03:46:27;;;;;;;4.62;1.02;;;14.60;99.90;;;;;;4401483;32;20105;-68
2021/08/26 03:48:52;;;;;;;1.25;0.65;;;14.70;99.90;;;;;;4388519;32;20388;-69
2021/08/26 03:51:18;;;;;;;2.10;0.77;;;14.60;99.90;;;;;;4400699;32;20129;-68
2021/08/26 03:53:43;;;;;;;0.40;0.40;;;14.70;99.90;;;;;;4400539;32;20070;-68
2021/08/26 03:56:09;;;;;;;0.40;0.40;;;14.70;99.90;;;;;;4400905;32;20078;-67
2021/08/26 03:58:35;;;;;;;0.60;0.60;;;14.70;99.90;;;;;;4400243;32;20073;-68
2021/08/26 04:01:03;;;;;;;0.50;0.50;;;14.70;99.90;;;;;;4400120;32;20074;-67
2021/08/26 04:03:28;;;;;;;0.60;0.60;;;14.70;99.90;;;;;;4400513;32;20078;-68
2021/08/26 04:05:54;;;;;;;0.32;0.32;;;14.70;99.90;;;;;;4400522;32;20639;-68
2021/08/26 04:08:19;;;;;;;1.40;1.00;;;14.70;99.90;;;;;;4400842;32;20089;-67
2021/08/26 04:10:45;;;;;;;11.18;1.15;;;14.70;99.90;;;;;;4401409;32;20058;-68
2021/08/26 04:13:10;;;;;;;0.40;0.40;;;14.60;99.90;;;;;;4401479;32;20397;-68
2021/08/26 04:15:36;;;;;;;0.40;0.40;;;14.60;99.90;;;;;;4400061;32;20101;-67
2021/08/26 04:18:01;;;;;;;0.80;0.52;;;14.60;99.90;;;;;;4400473;32;20078;-67
2021/08/26 04:20:27;;;;;;;1.17;1.05;;;14.60;99.90;;;;;;4399513;32;20059;-69
2021/08/26 04:22:53;;;;;;;3.67;0.98;;;14.60;99.90;;;;;;4391151;32;20120;-68
2021/08/26 04:25:18;;;;;;;0.57;0.57;;;14.60;99.90;;;;;;4387128;32;20083;-68
2021/08/26 04:27:44;;;;;;;1.50;1.00;;;14.60;99.90;;;;;;4403648;32;20069;-68
2021/08/26 04:30:10;;;;;;;0.32;0.32;;;14.60;99.90;;;;;;4415605;32;20062;-68
2021/08/26 04:32:35;;;;;;;0.50;0.50;;;14.60;99.90;;;;;;4415370;32;20066;-67
2021/08/26 04:35:01;;;;;;;0.98;0.98;;;14.60;99.90;;;;;;4408143;32;20071;-68
2021/08/26 04:37:26;;;;;;;1.52;1.25;;;14.60;99.90;;;;;;4399829;32;20069;-67
2021/08/26 04:39:52;;;;;;;0.57;0.57;;;14.60;99.90;;;;;;4391090;32;20186;-69
2021/08/26 04:42:17;;;;;;;7.37;1.52;;;14.60;99.90;;;;;;4415716;32;20392;-68
2021/08/26 04:44:43;;;;;;;1.15;0.70;;;14.60;99.90;;;;;;4415969;32;20507;-69
2021/08/26 04:47:08;;;;;;;15.07;0.95;;;14.60;99.90;;;;;;4415884;32;20065;-69
2021/08/26 04:49:34;;;;;;;1.55;0.93;;;14.60;99.90;;;;;;4415041;32;20062;-67
2021/08/26 04:51:59;;;;;;;0.50;0.50;;;14.60;99.90;;;;;;4414964;32;20066;-68
2021/08/26 04:54:25;;;;;;;0.50;0.50;;;14.60;99.90;;;;;;4397725;32;20113;-68
2021/08/26 04:56:50;;;;;;;0.70;0.43;;;14.60;99.90;;;;;;4400026;32;20082;-68
2021/08/26 04:59:16;;;;;;;1.00;0.93;;;14.60;99.90;;;;;;4398525;32;20062;-68
2021/08/26 05:01:41;;;;;;;1.42;1.23;;;14.50;99.90;;;;;;4390750;32;21364;-68
2021/08/26 05:04:07;;;;;;;1.48;0.80;;;14.50;99.90;;;;;;4391504;32;20113;-68
2021/08/26 05:06:33;;;;;;;0.50;0.50;;;14.50;99.90;;;;;;4383722;32;20066;-69
2021/08/26 05:08:59;;;;;;;8.85;1.17;;;14.50;99.90;;;;;;4394001;32;20464;-68
2021/08/26 05:11:24;;;;;;;2.85;1.62;;;14.50;99.90;;;;;;4394909;32;20066;-68
2021/08/26 05:13:50;;;;;;;1.48;1.37;;;14.60;99.90;;;;;;4396577;32;20062;-68
2021/08/26 05:16:16;;;;;;;0.30;0.30;;;14.60;99.90;;;;;;4397501;32;20128;-67
2021/08/26 05:18:41;;;;;;;0.95;0.90;;;14.60;99.90;;;;;;4377843;32;20385;-67
2021/08/26 05:21:06;;;;;;;0.30;0.30;;;14.60;99.90;;;;;;4404657;32;20121;-68
2021/08/26 05:23:32;;;;;;;0.62;0.62;;;14.70;99.90;;;;;;4412369;32;20146;-69
2021/08/26 05:25:58;;;;;;;0.50;0.50;;;14.70;99.90;;;;;;4393187;32;20136;-68
2021/08/26 05:28:23;;;;;;;0.75;0.75;;;14.70;99.90;;;;;;4355489;32;21166;-69
2021/08/26 05:30:49;;;;;;;0.57;0.57;;;14.60;99.90;;;;;;4379801;32;20401;-67
2021/08/26 05:33:14;;;;;;;0.80;0.60;;;14.60;99.90;;;;;;4375290;32;20082;-67
2021/08/26 05:35:40;;;;;;;1.25;1.02;;;14.70;99.90;;;;;;4392112;32;20395;-68
2021/08/26 05:38:06;;;;;;;1.45;0.47;;;14.70;99.90;;;;;;4392993;32;20532;-68
2021/08/26 05:40:31;;;;;;;4.12;0.98;;;14.70;99.90;;;;;;4396960;32;20367;-68
2021/08/26 05:42:57;;;;;;;0.30;0.30;;;14.70;99.90;;;;;;4391548;32;20073;-68
2021/08/26 05:45:22;;;;;;;0.52;0.52;;;14.70;99.90;;;;;;4386869;32;20081;-67
2021/08/26 05:47:54;;;;;;;0.68;0.68;;;14.70;99.90;;;;;;4393643;32;20103;-68
2021/08/26 05:50:20;;;;;;;3.80;1.65;;;14.70;99.90;;;;;;4395903;32;20094;-68
2021/08/26 05:52:47;;;;;;;1.35;0.73;;;14.70;99.90;;;;;;4390736;32;20585;-67
2021/08/26 05:55:13;;;;;;;3.12;1.23;;;14.70;99.90;;;;;;4385993;32;20193;-67
2021/08/26 05:57:39;;;;;;;0.75;0.75;;;14.80;99.90;;;;;;4384755;32;20094;-68
2021/08/26 06:00:05;;;;;;;1.20;0.80;;;14.80;99.90;;;;;;4375811;32;20093;-67
2021/08/26 06:02:30;;;;;;;0.62;0.62;;;14.80;99.90;;;;;;4376587;32;20327;-68
2021/08/26 06:04:56;;;;;;;0.40;0.40;;;14.90;99.90;;;;;;4382929;32;20560;-68
2021/08/26 06:07:22;;;;;;;2.90;1.40;;;14.90;99.90;;;;;;4381295;32;20555;-68
2021/08/26 06:09:48;;;;;;;3.92;1.20;;;15.00;99.90;;;;;;4380605;32;20185;-67
2021/08/26 06:12:13;;;;;;;0.50;0.50;;;15.00;99.90;;;;;;4384786;32;20457;-68
2021/08/26 06:14:39;;;;;;;3.90;1.55;;;14.90;99.90;;;;;;4381465;32;20066;-67
2021/08/26 06:17:04;;;;;;;2.47;0.77;;;14.90;99.90;;;;;;4386442;32;20081;-68
2021/08/26 06:19:30;;;;;;;1.23;0.88;;;15.00;99.90;;;;;;4388841;32;20482;-68
2021/08/26 06:21:55;;;;;;;0.57;0.57;;;15.00;99.90;;;;;;4387999;32;20133;-67
2021/08/26 06:24:21;;;;;;;2.08;0.75;;;15.00;99.90;;;;;;4372175;32;74671;-67
2021/08/26 06:26:46;;;;;;;0.32;0.32;;;15.00;99.90;;;;;;4383706;32;20152;-67
2021/08/26 06:29:12;;;;;;;1.42;0.88;;;15.00;99.90;;;;;;4370862;32;20099;-67
2021/08/26 06:31:39;;;;;;;0.35;0.35;;;15.10;99.90;;;;;;4383543;32;21050;-67
2021/08/26 06:34:04;;;;;;;4.10;1.30;;;15.00;99.90;;;;;;4382994;32;20081;-67
2021/08/26 06:36:30;;;;;;;2.20;0.60;;;15.00;99.90;;;;;;4385539;32;20087;-67
2021/08/26 06:38:55;;;;;;;0.40;0.40;;;15.00;99.90;;;;;;4385685;32;20098;-67
2021/08/26 06:41:22;;;;;;;2.40;1.20;;;15.10;99.90;;;;;;4387341;32;20069;-67
2021/08/26 06:43:49;;;;;;;0.88;0.85;;;15.20;99.90;;;;;;4384603;32;20269;-67
2021/08/26 06:46:14;;;;;;;0.60;0.60;;;15.20;99.90;;;;;;4386559;32;20098;-68
2021/08/26 06:48:40;;;;;;;0.93;0.93;;;15.20;99.90;;;;;;4384987;32;20086;-68
2021/08/26 06:51:05;;;;;;;8.25;0.73;;;15.30;99.90;;;;;;4384204;32;20066;-68
2021/08/26 06:53:31;;;;;;;1.55;0.82;;;15.40;99.90;;;;;;4383907;32;20086;-68
2021/08/26 06:55:56;;;;;;;11.15;0.77;;;15.50;99.90;;;;;;4387758;32;20086;-68
2021/08/26 06:58:22;;;;;;;3.17;1.05;;;15.60;99.90;;;;;;4389396;32;20087;-68
2021/08/26 07:00:47;;;;;;;0.52;0.52;;;15.60;99.90;;;;;;4389508;32;20237;-68
2021/08/26 07:03:12;;;;;;;1.00;0.65;;;15.50;99.90;;;;;;4388152;32;20174;-68
2021/08/26 07:05:38;;;;;;;1.48;1.37;;;15.50;99.90;;;;;;4393732;32;20086;-67
2021/08/26 07:08:04;;;;;;;3.70;0.88;;;15.50;99.90;;;;;;4389358;32;20436;-67
2021/08/26 07:10:30;;;;;;;0.70;0.68;;;15.50;99.90;;;;;;4391865;32;20090;-68
2021/08/26 07:12:55;;;;;;;13.85;1.65;;;15.60;99.90;;;;;;4389773;32;20146;-67
2021/08/26 07:15:24;;;;;;;0.65;0.60;;;15.60;99.90;;;;;;4387272;32;20119;-68
2021/08/26 07:17:50;;;;;;;0.68;0.68;;;15.60;99.90;;;;;;4394292;32;20070;-68
2021/08/26 07:20:16;;;;;;;5.15;2.15;;;15.50;99.90;;;;;;4377448;32;20100;-68
2021/08/26 07:22:42;;;;;;;0.30;0.30;;;15.50;99.90;;;;;;4385170;32;20551;-66
2021/08/26 07:25:08;;;;;;;16.25;0.65;;;15.60;99.90;;;;;;4389093;32;20094;-69
2021/08/26 07:27:33;;;;;;;11.23;1.73;;;15.60;99.90;;;;;;4387182;32;20589;-67
2021/08/26 07:29:59;;;;;;;1.00;0.73;;;15.60;99.90;;;;;;4387931;32;20140;-67
2021/08/26 07:32:24;;;;;;;8.15;0.82;;;15.60;99.90;;;;;;4390683;32;20153;-69
2021/08/26 07:34:50;;;;;;;0.70;0.70;;;15.70;99.90;;;;;;4387601;32;20062;-69
2021/08/26 07:37:15;;;;;;;0.68;0.52;;;15.70;99.90;;;;;;4391991;32;20390;-68
2021/08/26 07:39:41;;;;;;;2.12;1.27;;;15.70;99.90;;;;;;4386863;32;20069;-68
2021/08/26 07:42:06;;;;;;;0.75;0.75;;;15.80;99.90;;;;;;4389551;32;20134;-69
2021/08/26 07:44:32;;;;;;;8.13;0.75;;;16.00;99.90;;;;;;4391966;32;20066;-68
2021/08/26 07:46:57;;;;;;;0.77;0.50;;;16.10;99.90;;;;;;4392342;32;20101;-66
2021/08/26 07:49:23;;;;;;;5.68;0.60;;;16.00;99.90;;;;;;4389968;32;20089;-67
2021/08/26 07:51:48;;;;;;;0.52;0.52;;;16.20;99.90;;;;;;4394155;32;20074;-68
2021/08/26 07:54:14;;;;;;;0.45;0.45;;;16.30;99.90;;;;;;4388213;32;20558;-68
2021/08/26 07:56:39;;;;;;;0.55;0.55;;;16.40;99.90;;;;;;4393909;32;20565;-68
2021/08/26 07:59:04;;;;;;;16.45;0.55;;;16.50;99.90;;;;;;4395081;32;20110;-67
2021/08/26 08:01:30;;;;;;;0.40;0.40;;;16.60;99.90;;;;;;4389912;32;20079;-67
2021/08/26 08:03:55;;;;;;;2.80;0.95;;;16.70;99.90;;;;;;4390422;32;20082;-66
2021/08/26 08:06:21;;;;;;;0.93;0.60;;;16.70;99.90;;;;;;4395655;32;20066;-65
2021/08/26 08:08:46;;;;;;;2.47;0.82;;;16.70;99.90;;;;;;4393299;32;20463;-66
2021/08/26 08:11:12;;;;;;;4.37;0.52;;;16.70;99.90;;;;;;4389931;32;20074;-67
2021/08/26 08:13:37;;;;;;;0.30;0.30;;;16.80;99.90;;;;;;4389872;32;20538;-66
2021/08/26 08:16:04;;;;;;;0.50;0.50;;;16.80;99.90;;;;;;4388674;32;20082;-67
2021/08/26 08:18:29;;;;;;;0.47;0.47;;;17.00;99.90;;;;;;4385243;32;20121;-67
2021/08/26 08:20:55;;;;;;;1.33;0.70;;;17.10;99.90;;;;;;4391957;32;20070;-67
2021/08/26 08:23:20;;;;;;;1.55;0.88;;;17.20;99.90;;;;;;4384755;32;20097;-67
2021/08/26 08:25:46;;;;;;;0.43;0.43;;;17.30;99.90;;;;;;4384122;32;20118;-66
2021/08/26 08:28:15;;;;;;;0.37;0.37;;;17.30;99.90;;;;;;4383842;32;20089;-66
2021/08/26 08:30:42;;;;;;;3.12;0.43;;;17.50;99.90;;;;;;4386508;32;20576;-66
2021/08/26 08:33:07;;;;;;;1.17;0.47;;;17.60;99.90;;;;;;4371586;32;20082;-66
2021/08/26 08:35:33;;;;;;;1.85;0.90;;;17.60;99.90;;;;;;4387358;32;20496;-66
2021/08/26 08:37:58;;;;;;;0.43;0.43;;;17.70;99.90;;;;;;4386216;32;20173;-66
2021/08/26 08:40:25;;;;;;;0.35;0.35;;;17.70;99.90;;;;;;4389602;32;20062;-66
2021/08/26 08:42:52;;;;;;;1.58;0.90;;;17.80;99.90;;;;;;4383416;32;20320;-67
2021/08/26 08:45:17;;;;;;;1.20;0.50;;;17.90;99.90;;;;;;4388118;32;20063;-67
2021/08/26 08:47:44;;;;;;;8.85;0.47;;;17.90;99.90;;;;;;4381901;32;20097;-67
2021/08/26 08:50:10;;;;;;;0.40;0.40;;;17.80;99.90;;;;;;4385713;32;20089;-69
2021/08/26 08:52:38;;;;;;;0.80;0.52;;;17.70;99.90;;;;;;4386815;32;20061;-68
2021/08/26 08:55:06;;;;;;;0.52;0.52;;;17.70;99.90;;;;;;4386926;32;20096;-68
2021/08/26 08:57:32;;;;;;;0.40;0.40;;;17.70;99.90;;;;;;4385036;32;20084;-67
2021/08/26 08:59:57;;;;;;;0.30;0.30;;;17.70;99.90;;;;;;4365947;32;20095;-67
2021/08/26 09:02:26;;;;;;;0.50;0.50;;;17.60;99.90;;;;;;4384228;32;20102;-65
2021/08/26 09:04:54;;;;;;;0.30;0.30;;;17.50;99.90;;;;;;4356362;32;20144;-67
2021/08/26 09:07:23;;;;;;;0.35;0.35;;;17.50;99.90;;;;;;4387962;32;20118;-64
2021/08/26 09:09:52;;;;;;;0.60;0.60;;;17.40;99.90;;;;;;4370633;32;20460;-66
2021/08/26 09:12:17;;;;;;;0.30;0.30;;;17.30;99.90;;;;;;4383605;32;20838;-65
2021/08/26 09:14:43;;;;;;;2.60;0.43;;;17.30;99.90;;;;;;4376384;32;20061;-67
2021/08/26 09:17:17;;;;;;;0.57;0.57;;;17.20;99.90;;;;;;4380532;32;20066;-67
2021/08/26 09:19:43;;;;;;;0.20;0.20;;;17.10;99.90;;;;;;4369659;32;20070;-67
2021/08/26 09:22:09;;;;;;;0.40;0.40;;;17.10;99.90;;;;;;4370340;32;20792;-68
2021/08/26 09:24:52;;;;;;;0.75;0.75;;;16.90;99.90;;;;;;4362488;32;20114;-68
2021/08/26 09:27:38;;;;;;;14.05;0.45;;;16.80;99.90;;;;;;4382612;32;20097;-67
2021/08/26 09:30:10;;;;;;;0.57;0.57;;;16.80;99.90;;;;;;4386024;32;20062;-68
2021/08/26 09:32:40;;;;;;;0.30;0.30;;;16.70;99.90;;;;;;4384876;32;20492;-68
2021/08/26 09:35:11;;;;;;;0.37;0.37;;;16.60;99.90;;;;;;4384625;32;20094;-68
2021/08/26 09:37:49;;;;;;;0.30;0.30;;;16.70;99.90;;;;;;4386831;32;20094;-68
2021/08/26 09:40:16;;;;;;;0.40;0.37;;;16.80;99.90;;;;;;4384570;32;20075;-67
2021/08/26 09:42:42;;;;;;;0.40;0.40;;;16.90;99.90;;;;;;4383950;32;20418;-68
2021/08/26 09:45:17;;;;;;;0.30;0.30;;;16.90;99.90;;;;;;4375069;32;20069;-68
2021/08/26 09:48:04;;;;;;;0.65;0.47;;;17.00;99.90;;;;;;4389719;32;20132;-68
2021/08/26 09:50:50;;;;;;;0.28;0.28;;;17.00;99.90;;;;;;4384990;32;20150;-67
2021/08/26 09:53:18;;;;;;;0.30;0.30;;;16.80;99.90;;;;;;4381549;32;20622;-68
2021/08/26 09:55:53;;;;;;;0.20;0.20;;;16.50;99.90;;;;;;4383217;32;20133;-68
2021/08/26 09:58:20;;;;;;;1.08;0.70;;;16.30;99.90;;;;;;4390020;32;20077;-68
2021/08/26 10:00:46;;;;;;;0.50;0.50;;;16.10;99.90;;;;;;4385406;32;20134;-67
2021/08/26 10:03:14;;;;;;;0.28;0.28;;;15.90;99.90;;;;;;4366321;32;20083;-68
2021/08/26 10:05:42;;;;;;;0.30;0.30;;;15.90;99.90;;;;;;4367896;32;20563;-68
2021/08/26 10:08:09;;;;;;;1.35;0.50;;;15.90;99.90;;;;;;4372269;32;20090;-67
2021/08/26 10:10:37;;;;;;;0.30;0.30;;;15.90;99.90;;;;;;4367585;32;20079;-67
2021/08/26 10:13:03;;;;;;;0.45;0.45;;;16.00;99.90;;;;;;4367521;32;20091;-68
2021/08/26 10:15:28;;;;;;;0.32;0.32;;;16.20;99.90;;;;;;4367635;32;20086;-68
2021/08/26 10:17:54;;;;;;;0.50;0.50;;;16.30;99.90;;;;;;4367463;32;20141;-68
2021/08/26 10:20:21;;;;;;;0.75;0.40;;;16.40;99.90;;;;;;4366569;32;20130;-68
2021/08/26 10:22:49;;;;;;;0.30;0.30;;;16.30;99.90;;;;;;4372249;32;20078;-67
2021/08/26 10:25:16;;;;;;;0.30;0.30;;;16.20;99.90;;;;;;4368987;32;20159;-67
2021/08/26 10:27:43;;;;;;;9.60;0.37;;;16.30;99.90;;;;;;4370696;32;20082;-67
2021/08/26 10:30:10;;;;;;;0.30;0.30;;;16.20;99.90;;;;;;4375668;32;20741;-69
2021/08/26 10:32:35;;;;;;;0.62;0.60;;;16.00;99.90;;;;;;4378049;32;20670;-67
2021/08/26 10:35:06;;;;;;;0.40;0.40;;;15.90;99.90;;;;;;4374945;32;20121;-67
2021/08/26 10:37:54;;;;;;;0.50;0.50;;;15.80;99.90;;;;;;4378569;32;20101;-66
2021/08/26 10:40:29;;;;;;;0.40;0.40;;;15.50;99.90;;;;;;4377233;32;20074;-67
2021/08/26 10:42:56;;;;;;;1.87;0.50;;;15.40;99.90;;;;;;4381704;32;20135;-66
2021/08/26 10:45:26;;;;;;;0.40;0.40;;;15.40;99.90;;;;;;4378676;32;20137;-67
2021/08/26 10:47:54;;;;;;;0.40;0.40;;;15.40;99.90;;;;;;4375607;32;20559;-66
2021/08/26 10:50:24;;;;;;;0.30;0.30;;;15.40;99.90;;;;;;4377887;32;20095;-68
2021/08/26 10:52:56;;;;;;;0.30;0.30;;;15.40;99.90;;;;;;4372847;32;20070;-67
2021/08/26 10:55:44;;;;;;;0.50;0.50;;;15.40;99.90;;;;;;4371613;32;20106;-66
2021/08/26 10:58:33;;;;;;;0.88;0.75;;;15.30;99.90;;;;;;4376144;32;20535;-67
2021/08/26 11:01:08;;;;;;;0.30;0.30;;;15.30;99.90;;;;;;4370880;32;20082;-67
2021/08/26 11:03:42;;;;;;;0.25;0.25;;;15.30;99.90;;;;;;4387449;32;20534;-67
2021/08/26 11:06:29;;;;;;;7.18;0.35;;;15.20;99.90;;;;;;4396906;32;20102;-66
2021/08/26 11:08:58;;;;;;;0.98;0.45;;;15.30;99.90;;;;;;4380549;32;20078;-67
2021/08/26 11:11:27;;;;;;;0.30;0.30;;;15.50;99.90;;;;;;4391262;32;20074;-67
2021/08/26 11:14:15;;;;;;;0.20;0.20;;;15.50;99.90;;;;;;4391808;32;20066;-66
2021/08/26 11:16:44;;;;;;;0.50;0.50;;;15.60;99.90;;;;;;4384507;32;20240;-67
2021/08/26 11:19:12;;;;;;;0.30;0.30;;;15.70;99.90;;;;;;4377875;32;20308;-67
2021/08/26 11:21:44;;;;;;;0.50;0.50;;;15.70;99.90;;;;;;4397922;32;20559;-67
2021/08/26 11:24:13;;;;;;;0.20;0.20;;;15.90;99.90;;;;;;4399229;32;20178;-67
2021/08/26 11:27:00;;;;;;;0.20;0.20;;;16.30;99.90;;;;;;4396252;32;20074;-68
2021/08/26 11:29:29;;;;;;;0.20;0.20;;;16.70;99.90;;;;;;4383482;32;20081;-67
2021/08/26 11:31:57;;;;;;;0.20;0.20;;;17.00;99.90;;;;;;4387003;32;20082;-67
2021/08/26 11:34:42;;;;;;;0.30;0.30;;;16.90;99.90;;;;;;4390116;32;20086;-67
2021/08/26 11:37:10;;;;;;;0.20;0.20;;;17.20;99.90;;;;;;4370593;32;20086;-66
2021/08/26 11:39:38;;;;;;;0.47;0.47;;;17.60;99.90;;;;;;4386396;32;20478;-67
2021/08/26 11:42:09;;;;;;;0.30;0.30;;;17.80;99.90;;;;;;4374719;32;20062;-67
2021/08/26 11:44:35;;;;;;;0.32;0.32;;;18.40;99.90;;;;;;4388597;32;20467;-67
2021/08/26 11:47:02;;;;;;;0.20;0.20;;;18.60;99.90;;;;;;4373553;32;20061;-67
2021/08/26 11:49:37;;;;;;;0.10;0.10;;;18.40;99.90;;;;;;4384051;32;20083;-67
2021/08/26 11:52:08;;;;;;;0.30;0.30;;;18.00;99.90;;;;;;4374766;32;20073;-67
2021/08/26 11:54:38;;;;;;;0.40;0.40;;;17.30;99.90;;;;;;4375388;32;20150;-67
2021/08/26 11:57:04;;;;;;;0.88;0.65;;;16.70;99.90;;;;;;4396979;32;20366;-66
2021/08/26 11:59:34;;;;;;;0.20;0.20;;;16.40;99.90;;;;;;4382737;32;20486;-67
2021/08/26 12:02:23;;;;;;;0.30;0.30;;;16.20;99.90;;;;;;4393497;32;20970;-67
2021/08/26 12:04:51;;;;;;;0.43;0.43;;;16.00;99.90;;;;;;4374550;32;20167;-67
2021/08/26 12:07:34;;;;;;;0.30;0.30;;;16.00;99.90;;;;;;4380379;32;20058;-67
2021/08/26 12:10:20;;;;;;;0.20;0.20;;;16.10;99.90;;;;;;4392216;32;20070;-67
2021/08/26 12:13:04;;;;;;;0.30;0.30;;;16.10;99.90;;;;;;4393965;32;20432;-67
2021/08/26 12:15:33;;;;;;;0.30;0.30;;;16.10;99.90;;;;;;4390470;32;20125;-66
2021/08/26 12:18:03;;;;;;;0.20;0.20;;;16.10;99.90;;;;;;4392377;32;20573;-67
2021/08/26 12:20:33;;;;;;;0.30;0.30;;;16.20;99.90;;;;;;4382191;32;20118;-67
2021/08/26 12:22:59;;;;;;;0.30;0.30;;;16.30;99.90;;;;;;4396961;32;20151;-67
2021/08/26 12:25:28;;;;;;;0.30;0.30;;;16.50;99.90;;;;;;4383087;32;20066;-67
2021/08/26 12:27:57;;;;;;;0.30;0.30;;;16.70;99.90;;;;;;4395716;32;20085;-67
2021/08/26 12:30:28;;;;;;;0.25;0.25;;;17.60;99.90;;;;;;4392882;32;20073;-67
2021/08/26 12:33:06;;;;;;;0.30;0.30;;;18.00;99.90;;;;;;4382029;32;20086;-66
2021/08/26 12:35:40;;;;;;;0.30;0.30;;;18.20;99.90;;;;;;4386624;32;20450;-68
2021/08/26 12:38:06;;;;;;;0.20;0.20;;;18.10;99.90;;;;;;4397863;32;20124;-68
2021/08/26 12:40:53;;;;;;;0.20;0.20;;;18.20;99.90;;;;;;4391571;32;20058;-67
2021/08/26 12:43:21;;;;;;;0.20;0.20;;;18.20;99.90;;;;;;4384799;32;20579;-67
2021/08/26 12:45:46;;;;;;;0.20;0.20;;;18.30;99.90;;;;;;4380891;32;20133;-67
2021/08/26 12:48:30;;;;;;;0.30;0.30;;;18.40;99.90;;;;;;4380992;32;20070;-67
2021/08/26 12:51:24;;;;;;;0.20;0.20;;;18.60;99.90;;;;;;4379191;32;20500;-67
2021/08/26 12:53:59;;;;;;;0.20;0.20;;;19.50;99.90;;;;;;4379464;32;20155;-67